Time;durP1;ratioP1;P1;durP2;ratioP2;P2;SDS_P1;SDS_P2;PMS_P1;PMS_P2;Temp;Humidity;BMP_temperature;BMP_pressure;BME280_temperature;BME280_humidity;BME280_pressure;Samples;Min_cycle;Max_cycle;Signal;HPM_P1;HPM_P2
2022/06/11 00:00:25;;;;;;;4.80;2.40;;;;;;;22.15;52.33;100273.31;5030521;28;20053;-58
2022/06/11 00:02:52;;;;;;;5.03;2.50;;;;;;;22.13;52.34;100278.00;5030251;28;20037;-59
2022/06/11 00:05:21;;;;;;;6.18;2.90;;;;;;;22.11;52.43;100271.94;5030438;28;20045;-59
2022/06/11 00:07:47;;;;;;;6.80;2.83;;;;;;;22.10;52.27;100276.44;5030414;28;20432;-59
2022/06/11 00:10:14;;;;;;;6.13;2.05;;;;;;;22.08;52.42;100274.91;5030116;28;20460;-59
2022/06/11 00:12:40;;;;;;;4.10;2.35;;;;;;;22.06;52.52;100274.22;5030380;28;20050;-59
2022/06/11 00:15:08;;;;;;;6.60;2.20;;;;;;;22.05;52.55;100280.59;5030415;28;20104;-58
2022/06/11 00:17:34;;;;;;;4.43;1.95;;;;;;;22.03;52.69;100285.25;5030113;28;20116;-58
2022/06/11 00:20:03;;;;;;;6.28;2.47;;;;;;;22.02;52.96;100283.56;5030119;28;20085;-59
2022/06/11 00:22:29;;;;;;;5.72;2.53;;;;;;;21.99;53.01;100285.53;5030125;28;20045;-60
2022/06/11 00:24:56;;;;;;;5.55;2.20;;;;;;;21.97;52.91;100282.16;5030363;28;20111;-59
2022/06/11 00:27:22;;;;;;;3.55;2.53;;;;;;;21.95;52.90;100286.84;5030228;28;20050;-59
2022/06/11 00:29:49;;;;;;;4.75;2.33;;;;;;;21.93;53.19;100280.78;5029878;28;20092;-59
2022/06/11 00:32:16;;;;;;;6.20;2.05;;;;;;;21.92;53.03;100276.41;5012307;28;20057;-58
2022/06/11 00:34:45;;;;;;;4.50;2.05;;;;;;;21.91;53.26;100274.75;5030170;28;20052;-58
2022/06/11 00:37:17;;;;;;;4.53;2.08;;;;;;;21.92;53.38;100284.47;5030302;28;20104;-59
2022/06/11 00:39:44;;;;;;;6.50;2.47;;;;;;;21.92;53.25;100281.78;5030103;28;20060;-59
2022/06/11 00:42:16;;;;;;;7.35;2.60;;;;;;;21.92;53.38;100280.94;5029941;28;20301;-59
2022/06/11 00:44:44;;;;;;;5.45;2.83;;;;;;;21.93;53.46;100282.59;5015892;28;20053;-59
2022/06/11 00:47:20;;;;;;;4.53;2.72;;;;;;;21.89;53.56;100284.75;5033720;28;20104;-59
2022/06/11 00:49:55;;;;;;;6.70;2.67;;;;;;;21.90;53.83;100273.03;5033522;28;20054;-59
2022/06/11 00:52:36;;;;;;;6.70;2.58;;;;;;;21.91;53.58;100276.56;5033585;28;20061;-60
2022/06/11 00:55:08;;;;;;;4.20;2.40;;;;;;;21.93;53.54;100274.56;5033800;28;20061;-59
2022/06/11 00:57:41;;;;;;;7.05;2.53;;;;;;;21.91;53.75;100269.38;5033534;28;20064;-58
2022/06/11 01:00:26;;;;;;;6.53;2.45;;;;;;;21.91;53.77;100269.38;5033625;28;20123;-59
2022/06/11 01:02:53;;;;;;;4.95;2.53;;;;;;;21.94;53.51;100270.91;5033331;28;20052;-60
2022/06/11 01:05:29;;;;;;;4.85;2.45;;;;;;;21.90;53.91;100264.16;5015845;28;20049;-59
2022/06/11 01:08:02;;;;;;;4.47;2.60;;;;;;;21.87;54.29;100263.44;5016116;28;20061;-57
2022/06/11 01:10:47;;;;;;;5.60;2.38;;;;;;;21.86;54.09;100266.28;5033590;28;20049;-59
2022/06/11 01:13:35;;;;;;;6.15;2.65;;;;;;;21.84;54.27;100268.28;5015934;28;20057;-59
2022/06/11 01:16:33;;;;;;;10.70;3.05;;;;;;;21.81;54.08;100266.75;5033399;28;20045;-58
2022/06/11 01:19:00;;;;;;;4.47;2.80;;;;;;;21.85;53.88;100261.91;5028513;28;20057;-59
2022/06/11 01:21:38;;;;;;;6.03;2.80;;;;;;;21.78;54.56;100266.19;5033315;28;20084;-58
2022/06/11 01:24:32;;;;;;;4.57;2.63;;;;;;;21.76;54.65;100269.03;5015211;28;20562;-60
2022/06/11 01:27:10;;;;;;;8.32;3.35;;;;;;;21.69;54.52;100254.50;5033111;28;20042;-59
2022/06/11 01:29:46;;;;;;;8.20;3.33;;;;;;;21.67;54.59;100262.69;5032830;28;20064;-59
2022/06/11 01:32:31;;;;;;;9.40;3.17;;;;;;;21.61;54.67;100266.78;5033128;28;20058;-58
2022/06/11 01:35:11;;;;;;;5.00;3.05;;;;;;;21.61;54.38;100269.47;5015494;28;20049;-59
2022/06/11 01:37:45;;;;;;;7.88;3.28;;;;;;;21.55;54.76;100267.38;5015580;28;20057;-57
2022/06/11 01:40:26;;;;;;;5.85;3.10;;;;;;;21.50;55.24;100266.13;5032641;28;20045;-59
2022/06/11 01:43:10;;;;;;;6.47;3.10;;;;;;;21.45;55.19;100264.75;5032725;28;20109;-58
2022/06/11 01:45:37;;;;;;;7.88;3.85;;;;;;;21.43;54.69;100261.38;5032678;28;20493;-59
2022/06/11 01:48:07;;;;;;;7.50;3.58;;;;;;;21.37;55.25;100264.63;5032519;28;20111;-62
2022/06/11 01:50:37;;;;;;;7.15;2.95;;;;;;;21.33;55.48;100264.06;5014799;28;20127;-58
2022/06/11 01:53:17;;;;;;;7.03;3.88;;;;;;;21.33;55.35;100263.22;5015188;28;20053;-58
2022/06/11 01:55:46;;;;;;;6.35;3.22;;;;;;;21.28;55.93;100255.66;5032077;28;20115;-59
2022/06/11 01:58:38;;;;;;;8.43;3.90;;;;;;;21.28;56.08;100254.78;5032262;28;20478;-57
2022/06/11 02:01:46;;;;;;;15.68;3.78;;;;;;;21.24;56.06;100250.72;5014894;28;20053;-58
2022/06/11 02:04:36;;;;;;;7.72;3.35;;;;;;;21.25;56.13;100263.09;5024509;28;20049;-58
2022/06/11 02:07:20;;;;;;;7.68;4.03;;;;;;;21.23;56.03;100257.88;5032413;28;20099;-58
2022/06/11 02:10:18;;;;;;;7.18;3.80;;;;;;;21.22;56.10;100257.06;5031970;28;20091;-58
2022/06/11 02:13:03;;;;;;;9.77;3.90;;;;;;;21.21;56.41;100262.56;5031956;28;20058;-58
2022/06/11 02:15:39;;;;;;;6.70;3.75;;;;;;;21.21;56.25;100262.56;5014516;28;20057;-59
2022/06/11 02:18:10;;;;;;;6.65;3.72;;;;;;;21.18;56.16;100257.50;5031938;28;20076;-58
2022/06/11 02:20:42;;;;;;;6.95;3.95;;;;;;;21.13;56.14;100254.41;5014262;28;20579;-59
2022/06/11 02:23:26;;;;;;;8.00;3.13;;;;;;;21.06;56.57;100254.13;5031921;28;20111;-57
2022/06/11 02:25:58;;;;;;;6.30;3.33;;;;;;;21.03;56.51;100262.44;5014366;28;20053;-59
2022/06/11 02:28:31;;;;;;;6.43;3.38;;;;;;;20.96;56.44;100260.34;5031773;28;20054;-58
2022/06/11 02:31:03;;;;;;;7.82;3.95;;;;;;;20.91;56.63;100265.31;5031500;28;20452;-59
2022/06/11 02:33:33;;;;;;;7.88;3.92;;;;;;;20.87;56.58;100263.00;5031973;28;20053;-56
2022/06/11 02:36:17;;;;;;;9.18;3.75;;;;;;;20.80;57.18;100265.41;5014131;28;20064;-56
2022/06/11 02:38:44;;;;;;;9.10;3.92;;;;;;;20.79;56.74;100259.19;5031655;28;20049;-59
2022/06/11 02:41:15;;;;;;;5.85;4.07;;;;;;;20.72;57.35;100260.78;5031376;28;20084;-60
2022/06/11 02:43:42;;;;;;;7.25;4.03;;;;;;;20.69;57.08;100258.38;5031562;28;20552;-58
2022/06/11 02:48:55;;;;;;;5.78;3.78;;;;;;;20.64;57.23;100260.63;5031363;28;20517;-57
2022/06/11 02:51:24;;;;;;;8.45;4.15;;;;;;;20.59;57.36;100263.72;5013827;28;20049;-58
2022/06/11 02:53:51;;;;;;;7.32;4.28;;;;;;;20.57;57.59;100260.34;5031267;28;20056;-57
2022/06/11 02:56:17;;;;;;;9.00;4.68;;;;;;;20.54;57.57;100268.66;5031354;28;20057;-58
2022/06/11 02:58:44;;;;;;;7.30;5.07;;;;;;;20.51;57.81;100267.09;5031358;28;20057;-58
2022/06/11 03:01:16;;;;;;;9.63;4.70;;;;;;;20.47;58.19;100263.03;5031172;28;20425;-58
2022/06/11 03:03:43;;;;;;;12.15;5.32;;;;;;;20.46;58.20;100268.50;5031115;28;20049;-59
2022/06/11 03:06:11;;;;;;;8.02;4.57;;;;;;;20.43;58.15;100272.31;5030564;28;20129;-59
2022/06/11 03:08:38;;;;;;;7.47;4.57;;;;;;;20.40;58.30;100275.25;5030881;28;20057;-58
2022/06/11 03:11:04;;;;;;;9.02;5.10;;;;;;;20.39;58.45;100282.44;5031333;28;20115;-58
2022/06/11 03:13:31;;;;;;;11.45;5.95;;;;;;;20.39;58.80;100278.91;5031238;28;20058;-58
2022/06/11 03:15:57;;;;;;;10.80;5.50;;;;;;;20.38;58.93;100278.09;5031030;28;20083;-58
2022/06/11 03:18:25;;;;;;;7.90;5.28;;;;;;;20.40;59.20;100286.78;5030867;28;20045;-58
2022/06/11 03:20:52;;;;;;;8.95;5.60;;;;;;;20.43;58.89;100291.00;5013080;28;20045;-58
2022/06/11 03:23:20;;;;;;;6.97;4.95;;;;;;;20.44;59.20;100290.03;5013479;28;20049;-57
2022/06/11 03:25:47;;;;;;;8.35;5.43;;;;;;;20.44;59.11;100285.53;5013445;28;20091;-59
2022/06/11 03:28:18;;;;;;;10.02;5.40;;;;;;;20.46;59.44;100289.88;5030738;28;20054;-58
2022/06/11 03:30:46;;;;;;;8.38;5.72;;;;;;;20.44;58.97;100296.22;5030871;28;20493;-58
2022/06/11 03:33:14;;;;;;;6.03;4.95;;;;;;;20.44;59.14;100290.88;5013152;28;20053;-58
2022/06/11 03:35:43;;;;;;;9.18;5.75;;;;;;;20.43;59.01;100299.91;5030892;28;20088;-58
2022/06/11 03:38:11;;;;;;;9.15;6.03;;;;;;;20.43;59.13;100301.72;5030603;28;20437;-60
2022/06/11 03:40:37;;;;;;;9.70;5.47;;;;;;;20.42;58.85;100311.56;5013256;28;20053;-58
2022/06/11 03:43:04;;;;;;;8.57;5.47;;;;;;;20.43;59.19;100307.06;5030496;28;20054;-59
2022/06/11 03:45:32;;;;;;;8.85;5.53;;;;;;;20.41;59.13;100309.03;5030641;28;20552;-59
2022/06/11 03:47:58;;;;;;;9.98;5.22;;;;;;;20.40;58.96;100307.31;5030200;28;20111;-60
2022/06/11 03:50:33;;;;;;;8.10;5.55;;;;;;;20.36;59.25;100313.94;5030515;28;20057;-59
2022/06/11 03:53:01;;;;;;;8.65;6.00;;;;;;;20.34;58.93;100314.09;5013020;28;20048;-58
2022/06/11 03:55:28;;;;;;;10.00;5.50;;;;;;;20.33;59.17;100314.22;5030516;28;20041;-59
2022/06/11 03:57:56;;;;;;;8.30;5.30;;;;;;;20.29;59.02;100316.31;5030414;28;20050;-63
2022/06/11 04:03:13;;;;;;;8.25;5.50;;;;;;;20.21;59.10;100318.81;5030563;28;20104;-58
2022/06/11 04:05:41;;;;;;;7.38;4.97;;;;;;;20.17;58.96;100324.47;5030444;28;20057;-58
2022/06/11 04:08:10;;;;;;;7.97;5.53;;;;;;;20.13;59.08;100322.19;5030166;28;20049;-58
2022/06/11 04:10:37;;;;;;;8.32;5.50;;;;;;;20.07;59.01;100315.56;5030351;28;20470;-60
2022/06/11 04:13:05;;;;;;;9.98;5.53;;;;;;;20.03;59.09;100319.47;5030218;28;20108;-57
2022/06/11 04:15:32;;;;;;;8.23;5.35;;;;;;;20.00;58.98;100322.44;5012991;28;20060;-57
2022/06/11 04:18:00;;;;;;;13.65;5.68;;;;;;;19.97;59.23;100328.00;5030911;28;20057;-58
2022/06/11 04:20:27;;;;;;;8.02;4.72;;;;;;;19.95;59.23;100321.97;5034001;28;20049;-58
2022/06/11 04:22:54;;;;;;;6.30;4.88;;;;;;;19.92;59.13;100321.25;5034072;28;20076;-59
2022/06/11 04:25:21;;;;;;;6.43;4.57;;;;;;;19.91;59.19;100329.41;5034099;28;20163;-54
2022/06/11 04:27:53;;;;;;;5.55;4.45;;;;;;;19.89;58.94;100331.38;5016605;28;20479;-56
2022/06/11 04:30:22;;;;;;;7.68;4.80;;;;;;;19.87;59.11;100335.97;5034095;28;20057;-54
2022/06/11 04:32:49;;;;;;;9.82;4.40;;;;;;;19.87;59.07;100334.16;5034461;28;20441;-59
2022/06/11 04:35:16;;;;;;;6.03;4.15;;;;;;;19.87;59.00;100338.66;5033902;28;20052;-59
2022/06/11 04:37:42;;;;;;;5.85;4.15;;;;;;;19.86;58.86;100335.16;5033868;28;20050;-57
2022/06/11 04:40:09;;;;;;;5.82;3.85;;;;;;;19.86;59.10;100334.31;5033811;28;20048;-60
2022/06/11 04:42:36;;;;;;;6.30;4.00;;;;;;;19.86;58.77;100337.81;5033899;28;20067;-58
2022/06/11 04:45:04;;;;;;;6.88;3.92;;;;;;;19.87;58.84;100344.84;5032451;28;20049;-55
2022/06/11 04:47:31;;;;;;;6.97;3.72;;;;;;;19.88;58.56;100340.34;5033769;28;20049;-58
2022/06/11 04:50:00;;;;;;;7.68;3.38;;;;;;;19.88;58.66;100348.34;5015845;28;20402;-57
2022/06/11 04:52:27;;;;;;;4.15;3.05;;;;;;;19.88;58.68;100343.00;5033525;28;20058;-56
2022/06/11 04:54:53;;;;;;;5.38;3.17;;;;;;;19.88;58.45;100338.53;5033679;28;20096;-59
2022/06/11 04:57:21;;;;;;;4.93;3.00;;;;;;;19.89;58.67;100353.56;5033456;28;20085;-59
2022/06/11 04:59:47;;;;;;;4.55;3.40;;;;;;;19.89;58.78;100350.91;5033429;28;20057;-60
2022/06/11 05:02:14;;;;;;;9.18;3.30;;;;;;;19.89;58.64;100345.56;5033463;28;20560;-56
2022/06/11 05:04:41;;;;;;;4.13;3.22;;;;;;;19.89;58.61;100342.88;5033358;28;20233;-57
2022/06/11 05:07:08;;;;;;;7.28;3.63;;;;;;;19.91;58.91;100348.09;5015308;28;20053;-56
2022/06/11 05:09:34;;;;;;;6.95;3.72;;;;;;;19.92;58.99;100345.28;5032951;28;20053;-59
2022/06/11 05:12:02;;;;;;;6.95;3.40;;;;;;;19.93;58.99;100349.66;5033432;28;20108;-57
2022/06/11 05:14:29;;;;;;;6.43;3.83;;;;;;;19.96;58.87;100348.53;5033365;28;20049;-56
2022/06/11 05:16:56;;;;;;;7.15;3.95;;;;;;;19.98;59.02;100343.94;5033256;28;20664;-56
2022/06/11 05:19:23;;;;;;;6.95;4.05;;;;;;;20.00;58.87;100354.50;5032867;28;20076;-56
2022/06/11 05:21:51;;;;;;;6.53;3.97;;;;;;;20.02;58.99;100349.84;5015228;28;20131;-58
2022/06/11 05:24:19;;;;;;;6.13;3.75;;;;;;;20.04;59.24;100346.06;5033050;28;20135;-59
2022/06/11 05:26:50;;;;;;;5.65;3.72;;;;;;;20.05;59.33;100341.59;5032967;28;20104;-57
2022/06/11 05:29:23;;;;;;;7.35;3.97;;;;;;;20.07;59.40;100352.97;5032282;28;20061;-58
2022/06/11 05:31:50;;;;;;;7.35;4.25;;;;;;;20.11;59.06;100348.22;5032730;28;20444;-57
2022/06/11 05:34:23;;;;;;;5.75;3.90;;;;;;;20.13;59.09;100355.13;5032619;28;20087;-56
2022/06/11 05:36:51;;;;;;;8.32;3.85;;;;;;;20.14;59.30;100356.81;5014445;28;20112;-55
2022/06/11 05:39:18;;;;;;;5.75;3.65;;;;;;;20.16;59.04;100349.50;5032241;28;20046;-58
2022/06/11 05:41:45;;;;;;;7.43;3.42;;;;;;;20.18;58.93;100358.22;5032578;28;20075;-59
2022/06/11 05:44:11;;;;;;;6.25;3.17;;;;;;;20.21;58.75;100348.22;5031710;28;20444;-55
2022/06/11 05:46:38;;;;;;;4.43;3.08;;;;;;;20.22;58.62;100364.13;5032160;28;20456;-59
2022/06/11 05:49:14;;;;;;;5.55;3.13;;;;;;;20.23;58.44;100349.81;5014565;28;20532;-59
2022/06/11 05:51:43;;;;;;;6.47;3.28;;;;;;;20.27;58.34;100350.38;5032747;28;20520;-57
2022/06/11 05:54:15;;;;;;;4.22;2.53;;;;;;;20.27;58.24;100348.56;5014634;28;20053;-59
2022/06/11 05:56:42;;;;;;;5.38;2.42;;;;;;;20.32;58.27;100348.13;5032623;28;20057;-57
2022/06/11 05:59:15;;;;;;;5.95;2.60;;;;;;;20.35;57.60;100345.19;5031820;28;20463;-59
2022/06/11 06:01:43;;;;;;;3.65;2.20;;;;;;;20.40;57.35;100350.97;5032486;28;20045;-57
2022/06/11 06:04:09;;;;;;;6.32;2.08;;;;;;;20.44;56.74;100352.38;5014715;28;20096;-58
2022/06/11 06:06:36;;;;;;;2.42;1.75;;;;;;;20.47;56.68;100355.75;5032432;28;20493;-57
2022/06/11 06:09:03;;;;;;;5.13;2.15;;;;;;;20.49;56.70;100349.31;5032256;28;20103;-60
2022/06/11 06:11:30;;;;;;;3.42;1.67;;;;;;;20.52;56.44;100353.53;5031781;28;20459;-59
2022/06/11 06:13:56;;;;;;;4.15;1.73;;;;;;;20.55;56.02;100359.44;5031093;28;20111;-59
2022/06/11 06:16:26;;;;;;;4.40;1.85;;;;;;;20.59;55.06;100361.84;5031844;28;20114;-59
2022/06/11 06:18:55;;;;;;;8.02;2.03;;;;;;;20.60;54.88;100364.38;5030872;28;20053;-58
2022/06/11 06:21:24;;;;;;;3.85;1.52;;;;;;;20.63;54.79;100363.25;5031500;28;20050;-59
2022/06/11 06:23:52;;;;;;;5.15;1.92;;;;;;;20.66;54.56;100371.84;5031694;28;20045;-59
2022/06/11 06:26:20;;;;;;;4.40;1.73;;;;;;;20.67;54.19;100368.19;5031746;28;20073;-57
2022/06/11 06:28:46;;;;;;;3.20;1.35;;;;;;;20.70;54.19;100369.72;5030981;28;20053;-59
2022/06/11 06:31:15;;;;;;;3.15;1.40;;;;;;;20.73;53.39;100368.59;5031818;28;20053;-54
2022/06/11 06:33:42;;;;;;;4.20;1.75;;;;;;;20.76;53.32;100371.88;5014218;28;20413;-59
2022/06/11 06:36:10;;;;;;;5.43;1.60;;;;;;;20.78;53.54;100374.41;5031824;28;20103;-55
2022/06/11 06:38:38;;;;;;;3.17;1.52;;;;;;;20.80;52.98;100383.13;5014235;28;20079;-60
2022/06/11 06:41:05;;;;;;;6.55;1.80;;;;;;;20.82;52.85;100378.50;5031632;28;20053;-57
2022/06/11 06:43:32;;;;;;;3.90;1.73;;;;;;;20.85;52.84;100382.72;5014191;28;20045;-60
2022/06/11 06:46:00;;;;;;;5.25;1.65;;;;;;;20.86;52.48;100382.56;5031425;28;20049;-57
2022/06/11 06:48:27;;;;;;;4.20;1.63;;;;;;;20.88;52.52;100385.97;5031267;28;20081;-59
2022/06/11 06:50:54;;;;;;;4.63;1.70;;;;;;;20.91;52.38;100388.38;5031339;28;20056;-58
2022/06/11 06:53:21;;;;;;;6.07;1.80;;;;;;;20.93;52.35;100394.44;5031299;28;20057;-59
2022/06/11 06:55:48;;;;;;;6.40;1.65;;;;;;;20.95;52.25;100391.63;5031525;28;20080;-59
2022/06/11 06:58:15;;;;;;;8.55;2.30;;;;;;;21.00;51.77;100396.56;5030932;28;20049;-56
2022/06/11 07:00:44;;;;;;;6.30;2.03;;;;;;;21.02;51.76;100397.25;5031281;28;20095;-62
2022/06/11 07:03:13;;;;;;;4.25;1.95;;;;;;;21.03;51.82;100386.41;5031070;28;20096;-59
2022/06/11 07:05:42;;;;;;;4.47;1.60;;;;;;;21.05;51.74;100395.13;5013793;28;20045;-58
2022/06/11 07:08:10;;;;;;;4.93;1.67;;;;;;;21.07;51.49;100395.84;5030926;28;20165;-59
2022/06/11 07:10:45;;;;;;;5.28;1.95;;;;;;;21.11;51.31;100406.28;5031359;28;20046;-58
2022/06/11 07:13:11;;;;;;;5.32;2.10;;;;;;;21.12;51.16;100405.31;5013587;28;20481;-59
2022/06/11 07:15:38;;;;;;;3.65;1.90;;;;;;;21.13;51.21;100399.81;5031216;28;20053;-60
2022/06/11 07:18:12;;;;;;;5.38;1.98;;;;;;;21.13;51.25;100405.16;5030481;28;20104;-58
2022/06/11 07:20:40;;;;;;;3.95;1.90;;;;;;;21.16;51.50;100404.03;5030789;28;20500;-58
2022/06/11 07:23:15;;;;;;;3.88;1.70;;;;;;;21.16;51.43;100404.03;5013513;28;20065;-59
2022/06/11 07:25:43;;;;;;;5.57;2.22;;;;;;;21.21;51.42;100405.31;5031017;28;20103;-58
2022/06/11 07:28:24;;;;;;;6.75;2.00;;;;;;;21.20;51.29;100395.56;5030551;28;20057;-59
2022/06/11 07:30:51;;;;;;;5.35;2.25;;;;;;;21.28;51.84;100400.22;5030255;28;20490;-59
2022/06/11 07:33:23;;;;;;;3.22;1.50;;;;;;;21.31;50.70;100396.41;5031000;28;20056;-58
2022/06/11 07:35:50;;;;;;;5.40;2.05;;;;;;;21.35;50.96;100401.31;5031130;28;20064;-60
2022/06/11 07:38:20;;;;;;;4.18;1.88;;;;;;;21.39;51.22;100406.41;5030794;28;20045;-57
2022/06/11 07:40:46;;;;;;;5.75;2.20;;;;;;;21.44;50.92;100407.69;5030687;28;20049;-56
2022/06/11 07:43:13;;;;;;;6.05;2.20;;;;;;;21.49;50.79;100401.88;5030543;28;20135;-58
2022/06/11 07:45:42;;;;;;;3.72;1.73;;;;;;;21.54;50.87;100398.78;5030956;28;20041;-59
2022/06/11 07:48:10;;;;;;;4.00;1.73;;;;;;;21.61;50.88;100402.59;5030565;28;20057;-58
2022/06/11 07:50:40;;;;;;;3.67;2.08;;;;;;;21.66;50.76;100394.94;5030691;28;20103;-58
2022/06/11 07:53:14;;;;;;;4.40;1.67;;;;;;;21.74;50.78;100397.78;5030069;28;20080;-60
2022/06/11 07:55:44;;;;;;;4.68;1.80;;;;;;;21.80;50.55;100395.50;5012957;28;20054;-59
2022/06/11 07:58:13;;;;;;;7.63;2.55;;;;;;;21.86;50.69;100394.91;5030599;28;20148;-58
2022/06/11 08:00:50;;;;;;;3.97;1.90;;;;;;;21.93;50.40;100401.38;5012993;28;20053;-60
2022/06/11 08:03:18;;;;;;;5.22;1.90;;;;;;;22.00;50.27;100410.53;5030625;28;20073;-58
2022/06/11 08:05:46;;;;;;;4.43;1.60;;;;;;;22.08;50.24;100409.81;5030490;28;20051;-58
2022/06/11 08:08:15;;;;;;;5.78;2.00;;;;;;;22.14;49.41;100403.00;5030157;28;20493;-58
2022/06/11 08:10:43;;;;;;;6.38;2.28;;;;;;;22.22;48.91;100413.84;5030914;28;20053;-59
2022/06/11 08:13:10;;;;;;;5.32;2.15;;;;;;;22.27;49.12;100416.06;5012877;28;20049;-59
2022/06/11 08:15:39;;;;;;;4.97;2.20;;;;;;;22.33;48.65;100414.63;5030422;28;20060;-59
2022/06/11 08:18:06;;;;;;;6.25;2.20;;;;;;;22.38;49.01;100415.03;5012555;28;20097;-58
2022/06/11 08:20:35;;;;;;;5.60;1.80;;;;;;;22.44;48.45;100419.81;5012783;28;20053;-59
2022/06/11 08:23:03;;;;;;;7.28;2.28;;;;;;;22.51;48.40;100414.69;5030262;28;20068;-59
2022/06/11 08:25:30;;;;;;;6.57;2.00;;;;;;;22.58;48.09;100414.97;5029927;28;20053;-59
2022/06/11 08:27:57;;;;;;;6.05;2.15;;;;;;;22.64;47.82;100415.22;5030308;28;20053;-58
2022/06/11 08:30:25;;;;;;;4.88;2.08;;;;;;;22.70;47.78;100418.28;5030217;28;20053;-60
2022/06/11 08:32:52;;;;;;;4.82;1.65;;;;;;;22.76;48.62;100415.84;5012521;28;20061;-55
2022/06/11 08:35:22;;;;;;;9.65;1.80;;;;;;;22.83;48.42;100412.56;5012436;28;20091;-58
2022/06/11 08:37:49;;;;;;;6.65;1.80;;;;;;;22.91;48.46;100417.97;5030369;28;20532;-60
2022/06/11 08:40:22;;;;;;;10.77;2.88;;;;;;;22.98;47.14;100421.75;5029574;28;20445;-59
2022/06/11 08:43:03;;;;;;;6.10;2.20;;;;;;;23.06;46.81;100423.66;5030208;28;20054;-59
2022/06/11 08:45:38;;;;;;;6.22;2.05;;;;;;;23.15;46.12;100422.78;5030065;28;20053;-56
2022/06/11 08:48:20;;;;;;;5.88;1.95;;;;;;;23.21;46.12;100434.72;5012244;28;20057;-60
2022/06/11 08:51:33;;;;;;;5.97;1.90;;;;;;;23.25;46.09;100428.03;5030502;28;20049;-59
2022/06/11 08:54:05;;;;;;;6.03;1.88;;;;;;;23.34;45.03;100422.78;4998268;28;20186;-59
2022/06/11 08:56:49;;;;;;;4.82;1.90;;;;;;;23.35;46.42;100425.31;5012497;28;20115;-59
2022/06/11 08:59:39;;;;;;;6.00;2.28;;;;;;;23.38;46.31;100427.69;5029634;28;20095;-58
2022/06/11 09:02:30;;;;;;;6.57;2.05;;;;;;;23.43;46.25;100424.53;5030016;28;20053;-59
2022/06/11 09:05:16;;;;;;;8.57;2.13;;;;;;;23.50;46.73;100422.06;5030392;28;20477;-56
2022/06/11 09:08:10;;;;;;;8.40;2.20;;;;;;;23.53;46.16;100427.97;5033564;28;20053;-60
2022/06/11 09:11:02;;;;;;;5.88;1.83;;;;;;;23.60;45.70;100425.50;5033111;28;20614;-59
2022/06/11 09:13:50;;;;;;;7.35;2.20;;;;;;;23.68;46.03;100425.56;5033503;28;20050;-58
2022/06/11 09:16:23;;;;;;;6.13;1.80;;;;;;;23.81;46.54;100429.69;5033132;28;20099;-59
2022/06/11 09:19:11;;;;;;;14.98;2.65;;;;;;;23.87;45.67;100412.91;5032610;28;20060;-62
2022/06/11 09:21:56;;;;;;;6.65;2.03;;;;;;;23.96;45.68;100429.94;5031495;28;20572;-53
2022/06/11 09:24:35;;;;;;;6.57;1.83;;;;;;;24.06;44.68;100417.22;5032940;28;20045;-56
2022/06/11 09:27:12;;;;;;;6.43;1.77;;;;;;;24.18;43.92;100423.19;5032627;28;20053;-57
2022/06/11 09:30:00;;;;;;;6.95;1.73;;;;;;;24.24;44.72;100424.41;5032221;28;20465;-57
2022/06/11 09:32:30;;;;;;;4.28;1.67;;;;;;;24.36;44.25;100422.25;5015385;28;20107;-59
2022/06/11 09:35:28;;;;;;;8.10;2.10;;;;;;;24.41;44.57;100413.72;5033149;28;20065;-58
2022/06/11 09:38:30;;;;;;;5.25;1.65;;;;;;;24.51;45.01;100421.66;5028315;28;20052;-53
2022/06/11 09:41:26;;;;;;;8.10;1.88;;;;;;;24.60;45.37;100424.19;5015384;28;20060;-56
2022/06/11 09:44:13;;;;;;;5.20;1.92;;;;;;;24.77;44.85;100426.94;5015189;28;20045;-59
2022/06/11 09:46:47;;;;;;;6.72;2.10;;;;;;;24.85;43.84;100429.66;5032922;28;20049;-55
2022/06/11 09:49:41;;;;;;;3.70;1.48;;;;;;;24.94;45.33;100424.31;5032482;28;20095;-59
2022/06/11 09:52:16;;;;;;;8.02;1.88;;;;;;;25.07;44.57;100427.34;5032750;28;20124;-59
2022/06/11 09:55:21;;;;;;;6.18;1.92;;;;;;;25.17;44.51;100420.97;5015098;28;20057;-59
2022/06/11 09:57:54;;;;;;;3.10;1.52;;;;;;;25.34;44.10;100430.72;5032491;28;20046;-56
2022/06/11 10:00:46;;;;;;;5.00;1.73;;;;;;;25.47;43.27;100429.38;5032279;28;20061;-60
2022/06/11 10:03:39;;;;;;;6.17;1.70;;;;;;;25.49;42.92;100417.41;5031906;28;20127;-59
2022/06/11 10:06:09;;;;;;;4.72;1.90;;;;;;;25.59;43.40;100419.97;5032025;28;20049;-58
2022/06/11 10:08:56;;;;;;;4.20;1.70;;;;;;;25.60;42.55;100429.72;5031915;28;20046;-59
2022/06/11 10:11:38;;;;;;;8.18;1.98;;;;;;;25.68;41.80;100433.44;5013724;28;20053;-59
2022/06/11 10:14:28;;;;;;;5.43;1.55;;;;;;;25.69;43.05;100430.59;5014201;28;20101;-58
2022/06/11 10:17:15;;;;;;;7.57;2.00;;;;;;;25.78;42.76;100434.09;5031810;28;20468;-59
2022/06/11 10:19:51;;;;;;;5.15;1.98;;;;;;;25.80;42.20;100436.63;5031569;28;20050;-58
2022/06/11 10:22:26;;;;;;;8.68;1.95;;;;;;;25.89;42.57;100432.88;5032114;28;20755;-57
2022/06/11 10:25:11;;;;;;;5.40;1.58;;;;;;;25.94;42.80;100433.22;5014389;28;20060;-59
2022/06/11 10:27:45;;;;;;;6.03;1.70;;;;;;;26.08;41.87;100433.50;5032022;28;20603;-57
2022/06/11 10:30:33;;;;;;;9.23;1.98;;;;;;;26.21;42.98;100424.88;5013787;28;20042;-58
2022/06/11 10:33:06;;;;;;;6.50;1.77;;;;;;;26.36;41.56;100425.03;5014419;28;20056;-58
2022/06/11 10:35:43;;;;;;;5.60;2.00;;;;;;;26.47;41.29;100434.59;5031744;28;20053;-59
2022/06/11 10:38:58;;;;;;;8.98;2.30;;;;;;;26.58;41.56;100439.59;5013984;28;20100;-58
2022/06/11 10:41:35;;;;;;;6.40;1.75;;;;;;;26.72;40.70;100439.88;5026607;28;20054;-59
2022/06/11 10:44:23;;;;;;;3.22;1.40;;;;;;;26.87;42.03;100440.78;5031709;28;20053;-58
2022/06/11 10:46:52;;;;;;;7.25;1.88;;;;;;;27.13;41.18;100445.03;5031338;28;20057;-60
2022/06/11 10:49:22;;;;;;;5.70;1.73;;;;;;;27.35;40.89;100442.47;5013772;28;20064;-64
2022/06/11 10:52:04;;;;;;;11.32;2.03;;;;;;;27.52;39.18;100445.06;5031597;28;20107;-58
2022/06/11 10:54:31;;;;;;;5.15;1.48;;;;;;;27.68;38.93;100444.09;5029749;28;20057;-59
2022/06/11 10:57:21;;;;;;;4.25;1.63;;;;;;;27.66;38.49;100440.75;5029567;28;20054;-60
2022/06/11 11:00:13;;;;;;;5.95;1.67;;;;;;;27.66;38.95;100449.69;5012017;28;20095;-60
2022/06/11 11:02:45;;;;;;;4.70;1.65;;;;;;;27.73;36.87;100443.56;5029874;28;20053;-60
2022/06/11 11:05:14;;;;;;;5.43;1.60;;;;;;;27.81;38.66;100433.47;5012443;28;20060;-60
2022/06/11 11:08:01;;;;;;;6.45;1.92;;;;;;;27.85;38.64;100431.25;5030025;28;20693;-60
2022/06/11 11:10:34;;;;;;;3.95;1.70;;;;;;;27.97;37.25;100443.28;5031072;28;20053;-60
2022/06/11 11:13:06;;;;;;;3.35;1.40;;;;;;;28.12;39.37;100436.19;5031149;28;20557;-60
2022/06/11 11:15:40;;;;;;;9.38;2.00;;;;;;;28.32;37.95;100440.03;5013600;28;20055;-59
2022/06/11 11:18:16;;;;;;;4.78;1.70;;;;;;;28.64;38.47;100420.84;5030941;28;20057;-59
2022/06/11 11:20:46;;;;;;;4.13;1.70;;;;;;;29.01;39.19;100431.69;5031050;28;20046;-59
2022/06/11 11:23:38;;;;;;;4.25;1.60;;;;;;;29.41;39.73;100416.81;5030954;28;20056;-59
2022/06/11 11:26:16;;;;;;;5.88;1.80;;;;;;;29.86;34.63;100428.19;5006617;28;20049;-60
2022/06/11 11:29:01;;;;;;;5.20;1.70;;;;;;;30.26;36.62;100433.06;5012754;28;20192;-60
2022/06/11 11:31:41;;;;;;;4.10;1.50;;;;;;;30.54;35.28;100425.84;5030865;28;20601;-60
2022/06/11 11:34:13;;;;;;;4.43;1.60;;;;;;;30.72;34.81;100429.88;5031001;28;20496;-59
2022/06/11 11:36:40;;;;;;;4.57;1.67;;;;;;;30.85;34.81;100431.81;5013389;28;20045;-60
2022/06/11 11:39:13;;;;;;;4.63;1.60;;;;;;;30.88;34.41;100439.56;5030789;28;20058;-60
2022/06/11 11:41:51;;;;;;;4.57;1.50;;;;;;;30.94;35.19;100439.56;5030707;28;20045;-59
2022/06/11 11:44:23;;;;;;;4.55;1.90;;;;;;;31.10;33.85;100436.66;5030707;28;20115;-60
2022/06/11 11:46:58;;;;;;;5.65;1.98;;;;;;;31.18;33.45;100445.44;5030546;28;20548;-59
2022/06/11 11:49:29;;;;;;;4.43;1.55;;;;;;;31.15;32.91;100437.72;5030756;28;20053;-60
2022/06/11 11:52:04;;;;;;;5.88;1.98;;;;;;;31.00;32.45;100437.91;5030749;28;20057;-59
2022/06/11 11:54:32;;;;;;;6.38;1.88;;;;;;;30.84;32.44;100430.13;5013044;28;20049;-60
2022/06/11 11:57:02;;;;;;;5.25;1.80;;;;;;;30.60;32.79;100432.34;5012903;28;20604;-60